Spetsai, Greece
Current Conditions -  °F | °C
As of 1:50 AM on Tuesday 23 Dec 2014 (Local Time) from LGEL Reporting Station
Few Clouds Few Clouds  
Wind Chill: 37°   Ceiling: Unl
Heat Index: 37°   Visibility: 6mi
Dew Point: 32°   Wind: 0mph
Humidity: 81%   Direction: NA
Pressure: 30.3"   Gusts: NA
Location:  37.27°N, 23.15°E
Report Text: LGEL 222350Z 00000KT 9999 FEW025 03/00 Q1026
Loading
Personal Weather Stations






























Interactive Weather Map New forecast layout! Learn more

10-Day Weather Forecast

Advertisements
Track Severe Weather on mobile